createdAt,value
2017-12-04T00:00:33.961Z,1001.45
2017-12-04T00:01:33.990Z,1001.43
2017-12-04T00:02:34.041Z,1001.46
2017-12-04T00:03:34.056Z,1001.41
2017-12-04T00:04:34.082Z,1001.45
2017-12-04T00:05:34.448Z,1001.44
2017-12-04T00:06:34.147Z,1001.48
2017-12-04T00:07:34.279Z,1001.42
2017-12-04T00:08:34.204Z,1001.44
2017-12-04T00:09:34.237Z,1001.43
2017-12-04T00:10:34.266Z,1001.37
2017-12-04T00:11:34.298Z,1001.43
2017-12-04T00:12:34.327Z,1001.41
2017-12-04T00:13:34.356Z,1001.40
2017-12-04T00:14:34.387Z,1001.41
2017-12-04T00:15:34.417Z,1001.39
2017-12-04T00:16:34.483Z,1001.45
2017-12-04T00:17:34.476Z,1001.46
2017-12-04T00:18:34.514Z,1001.44
2017-12-04T00:19:34.538Z,1001.49
2017-12-04T00:20:34.568Z,1001.49
2017-12-04T00:21:34.610Z,1001.48
2017-12-04T00:22:34.627Z,1001.48
2017-12-04T00:23:34.659Z,1001.48
2017-12-04T00:24:34.689Z,1001.50
2017-12-04T00:25:34.729Z,1001.48
2017-12-04T00:26:34.750Z,1001.47
2017-12-04T00:27:34.783Z,1001.49
2017-12-04T00:28:34.811Z,1001.51
2017-12-04T00:29:34.840Z,1001.52
2017-12-04T00:30:34.876Z,1001.50
2017-12-04T00:31:34.903Z,1001.48
2017-12-04T00:32:34.930Z,1001.51
2017-12-04T00:33:34.964Z,1001.49
2017-12-04T00:34:35.049Z,1001.50
2017-12-04T00:35:35.035Z,1001.50
2017-12-04T00:36:35.054Z,1001.50
2017-12-04T00:37:35.083Z,1001.47
2017-12-04T00:38:35.119Z,1001.46
2017-12-04T00:39:35.151Z,1001.46
2017-12-04T00:40:35.175Z,1001.49
2017-12-04T00:41:35.204Z,1001.49
2017-12-04T00:42:35.246Z,1001.47
2017-12-04T00:43:35.266Z,1001.45
2017-12-04T00:44:35.299Z,1001.45
2017-12-04T00:45:35.327Z,1001.48
2017-12-04T00:46:35.359Z,1001.49
2017-12-04T00:47:35.386Z,1001.53
2017-12-04T00:48:35.415Z,1001.57
2017-12-04T00:49:35.450Z,1001.55
2017-12-04T00:50:35.480Z,1001.52
2017-12-04T00:51:35.511Z,1001.52
2017-12-04T00:52:35.539Z,1001.50
2017-12-04T00:53:35.570Z,1001.53
2017-12-04T00:54:35.605Z,1001.48
2017-12-04T00:55:35.632Z,1001.52
2017-12-04T00:56:35.709Z,1001.50
2017-12-04T00:57:35.693Z,1001.54
2017-12-04T00:58:35.732Z,1001.52
2017-12-04T00:59:35.755Z,1001.49
2017-12-04T01:00:35.782Z,1001.53
2017-12-04T01:01:35.815Z,1001.45
2017-12-04T01:02:35.845Z,1001.42
2017-12-04T01:03:35.877Z,1001.46
2017-12-04T01:04:35.909Z,1001.51
2017-12-04T01:05:35.999Z,1001.53
2017-12-04T01:06:35.970Z,1001.58
2017-12-04T01:07:36.013Z,1001.55
2017-12-04T01:08:36.047Z,1001.58
2017-12-04T01:09:36.059Z,1001.55
2017-12-04T01:10:36.089Z,1001.59
2017-12-04T01:11:36.120Z,1001.61
2017-12-04T01:12:36.151Z,1001.56
2017-12-04T01:13:36.183Z,1001.57
2017-12-04T01:14:36.213Z,1001.55
2017-12-04T01:15:36.243Z,1001.60
2017-12-04T01:16:36.678Z,1001.63
2017-12-04T01:17:36.306Z,1001.60
2017-12-04T01:18:36.391Z,1001.62
2017-12-04T01:19:36.365Z,1001.67
2017-12-04T01:20:36.396Z,1001.67
2017-12-04T01:21:36.432Z,1001.67
2017-12-04T01:22:36.461Z,1001.71
2017-12-04T01:23:36.492Z,1001.71
2017-12-04T01:24:36.519Z,1001.71
2017-12-04T01:25:36.551Z,1001.73
2017-12-04T01:26:36.583Z,1001.70
2017-12-04T01:27:36.612Z,1001.69
2017-12-04T01:28:36.640Z,1001.68
2017-12-04T01:29:36.675Z,1001.72
2017-12-04T01:30:36.706Z,1001.71
2017-12-04T01:31:36.734Z,1001.73
2017-12-04T01:32:36.765Z,1001.74
2017-12-04T01:33:36.796Z,1001.71
2017-12-04T01:34:36.830Z,1001.75
2017-12-04T01:35:36.857Z,1001.76
2017-12-04T01:36:36.891Z,1001.73
2017-12-04T01:37:36.917Z,1001.69
2017-12-04T01:38:36.954Z,1001.69
2017-12-04T01:39:36.981Z,1001.73
2017-12-04T01:40:37.011Z,1001.74
2017-12-04T01:41:37.042Z,1001.73
2017-12-04T01:42:37.072Z,1001.71
2017-12-04T01:43:37.102Z,1001.67
2017-12-04T01:44:37.132Z,1001.70
2017-12-04T01:45:37.164Z,1001.68
2017-12-04T01:46:37.194Z,1001.66
2017-12-04T01:47:37.225Z,1001.66
2017-12-04T01:48:37.262Z,1001.70
2017-12-04T01:49:37.287Z,1001.69
2017-12-04T01:50:37.318Z,1001.69
2017-12-04T01:51:37.349Z,1001.69
2017-12-04T01:52:37.377Z,1001.64
2017-12-04T01:53:37.409Z,1001.66
2017-12-04T01:54:37.443Z,1001.63
2017-12-04T01:55:37.475Z,1001.68
2017-12-04T01:56:37.506Z,1001.71
2017-12-04T01:57:37.535Z,1001.69
2017-12-04T01:58:37.564Z,1001.74
2017-12-04T01:59:37.596Z,1001.70
2017-12-04T02:00:37.630Z,1001.75
2017-12-04T02:01:37.658Z,1001.71
2017-12-04T02:02:37.691Z,1001.72
2017-12-04T02:03:37.725Z,1001.68
2017-12-04T02:04:37.753Z,1001.65
2017-12-04T02:05:37.845Z,1001.65
2017-12-04T02:06:37.818Z,1001.65
2017-12-04T02:07:37.910Z,1001.61
2017-12-04T02:08:37.873Z,1001.62
2017-12-04T02:09:37.905Z,1001.60
2017-12-04T02:10:37.934Z,1001.62
2017-12-04T02:11:37.970Z,1001.59
2017-12-04T02:12:37.995Z,1001.61
2017-12-04T02:13:38.024Z,1001.61
2017-12-04T02:14:38.054Z,1001.59
2017-12-04T02:15:38.086Z,1001.57
2017-12-04T02:16:38.129Z,1001.54
2017-12-04T02:17:38.146Z,1001.54
2017-12-04T02:18:38.179Z,1001.49
2017-12-04T02:19:38.209Z,1001.49
2017-12-04T02:20:38.239Z,1001.49
2017-12-04T02:21:38.270Z,1001.49
2017-12-04T02:22:38.303Z,1001.48
2017-12-04T02:23:38.335Z,1001.53
2017-12-04T02:24:38.364Z,1001.53
2017-12-04T02:25:38.406Z,1001.53
2017-12-04T02:26:38.425Z,1001.49
2017-12-04T02:27:38.459Z,1001.48
2017-12-04T02:28:38.485Z,1001.47
2017-12-04T02:29:38.515Z,1001.47
2017-12-04T02:30:38.546Z,1001.50
2017-12-04T02:31:38.582Z,1001.48
2017-12-04T02:32:38.608Z,1001.52
2017-12-04T02:33:38.637Z,1001.52
2017-12-04T02:34:38.669Z,1001.54
2017-12-04T02:35:38.701Z,1001.58
2017-12-04T02:36:38.733Z,1001.60
2017-12-04T02:37:38.761Z,1001.58
2017-12-04T02:38:38.791Z,1001.61
2017-12-04T02:39:38.827Z,1001.57
2017-12-04T02:40:38.856Z,1001.63
2017-12-04T02:41:38.885Z,1001.56
2017-12-04T02:42:38.917Z,1001.52
2017-12-04T02:43:38.947Z,1001.55
2017-12-04T02:44:38.976Z,1001.53
2017-12-04T02:45:39.007Z,1001.55
2017-12-04T02:46:39.042Z,1001.53
2017-12-04T02:47:39.069Z,1001.52
2017-12-04T02:48:39.099Z,1001.49
2017-12-04T02:49:39.129Z,1001.54
2017-12-04T02:50:39.158Z,1001.53
2017-12-04T02:51:39.189Z,1001.54
2017-12-04T02:52:39.220Z,1001.54
2017-12-04T02:53:39.251Z,1001.52
2017-12-04T02:54:39.281Z,1001.56
2017-12-04T02:55:39.317Z,1001.55
2017-12-04T02:56:39.347Z,1001.54
2017-12-04T02:57:39.371Z,1001.59
2017-12-04T02:58:39.406Z,1001.59
2017-12-04T02:59:39.449Z,1001.63
2017-12-04T03:00:39.466Z,1001.60
2017-12-04T03:01:39.500Z,1001.61
2017-12-04T03:02:39.527Z,1001.64
2017-12-04T03:03:39.559Z,1001.64
2017-12-04T03:04:39.586Z,1001.67
2017-12-04T03:05:39.716Z,1001.64
2017-12-04T03:06:39.647Z,1001.67
2017-12-04T03:07:39.701Z,1001.69
2017-12-04T03:08:39.710Z,1001.66
2017-12-04T03:09:39.741Z,1001.67
2017-12-04T03:10:39.772Z,1001.69
2017-12-04T03:11:39.803Z,1001.65
2017-12-04T03:12:39.831Z,1001.68
2017-12-04T03:13:39.867Z,1001.71
2017-12-04T03:14:39.895Z,1001.62
2017-12-04T03:15:39.925Z,1001.63
2017-12-04T03:16:40.044Z,1001.66
2017-12-04T03:17:39.989Z,1001.64
2017-12-04T03:18:40.019Z,1001.67
2017-12-04T03:19:40.048Z,1001.65
2017-12-04T03:20:40.080Z,1001.62
2017-12-04T03:21:40.108Z,1001.62
2017-12-04T03:22:40.139Z,1001.64
2017-12-04T03:23:40.174Z,1001.68
2017-12-04T03:24:40.201Z,1001.69
2017-12-04T03:25:40.361Z,1001.73
2017-12-04T03:26:40.269Z,1001.71
2017-12-04T03:27:40.345Z,1001.73
2017-12-04T03:28:40.323Z,1001.76
2017-12-04T03:29:40.354Z,1001.76
2017-12-04T03:30:40.392Z,1001.77
2017-12-04T03:31:40.419Z,1001.80
2017-12-04T03:32:40.449Z,1001.76
2017-12-04T03:33:40.478Z,1001.72
2017-12-04T03:34:40.509Z,1001.76
2017-12-04T03:35:40.539Z,1001.71
2017-12-04T03:36:40.576Z,1001.76
2017-12-04T03:37:40.600Z,1001.80
2017-12-04T03:38:40.631Z,1001.78
2017-12-04T03:39:40.662Z,1001.78
2017-12-04T03:40:40.697Z,1001.80
2017-12-04T03:41:40.725Z,1001.77
2017-12-04T03:42:40.756Z,1001.75
2017-12-04T03:43:40.785Z,1001.71
2017-12-04T03:44:40.814Z,1001.72
2017-12-04T03:45:40.847Z,1001.73
2017-12-04T03:46:40.880Z,1001.70
2017-12-04T03:47:40.912Z,1001.77
2017-12-04T03:48:40.940Z,1001.76
2017-12-04T03:49:40.990Z,1001.75
2017-12-04T03:50:41.003Z,1001.75
2017-12-04T03:51:41.047Z,1001.77
2017-12-04T03:52:41.062Z,1001.78
2017-12-04T03:53:41.093Z,1001.77
2017-12-04T03:54:41.123Z,1001.76
2017-12-04T03:55:41.158Z,1001.79
2017-12-04T03:56:41.191Z,1001.72
2017-12-04T03:57:41.221Z,1001.68
2017-12-04T03:58:41.251Z,1001.71
2017-12-04T03:59:41.283Z,1001.73
2017-12-04T04:00:41.309Z,1001.70
2017-12-04T04:01:41.346Z,1001.67
2017-12-04T04:02:41.378Z,1001.70
2017-12-04T04:03:41.401Z,1001.71
2017-12-04T04:04:41.433Z,1001.73
2017-12-04T04:05:41.464Z,1001.72
2017-12-04T04:06:41.494Z,1001.67
2017-12-04T04:07:41.524Z,1001.66
2017-12-04T04:08:41.555Z,1001.63
2017-12-04T04:09:41.591Z,1001.70
2017-12-04T04:10:41.619Z,1001.70
2017-12-04T04:11:41.651Z,1001.71
2017-12-04T04:12:41.677Z,1001.70
2017-12-04T04:13:41.720Z,1001.70
2017-12-04T04:14:42.069Z,1001.68
2017-12-04T04:15:41.773Z,1001.69
2017-12-04T04:16:41.805Z,1001.68
2017-12-04T04:17:41.832Z,1001.67
2017-12-04T04:18:41.864Z,1001.68
2017-12-04T04:19:41.894Z,1001.66
2017-12-04T04:20:41.925Z,1001.62
2017-12-04T04:21:41.957Z,1001.68
2017-12-04T04:22:41.994Z,1001.65
2017-12-04T04:23:42.018Z,1001.68
2017-12-04T04:24:42.048Z,1001.72
2017-12-04T04:25:42.101Z,1001.67
2017-12-04T04:26:42.107Z,1001.73
2017-12-04T04:27:42.143Z,1001.73
2017-12-04T04:28:42.174Z,1001.74
2017-12-04T04:29:42.204Z,1001.72
2017-12-04T04:30:42.233Z,1001.78
2017-12-04T04:31:42.271Z,1001.72
2017-12-04T04:32:42.294Z,1001.74
2017-12-04T04:33:42.326Z,1001.78
2017-12-04T04:34:42.373Z,1001.76
2017-12-04T04:35:42.386Z,1001.78
2017-12-04T04:36:42.469Z,1001.72
2017-12-04T04:37:42.448Z,1001.73
2017-12-04T04:38:42.482Z,1001.72
2017-12-04T04:39:42.509Z,1001.70
2017-12-04T04:40:42.541Z,1001.69
2017-12-04T04:41:42.574Z,1001.72
2017-12-04T04:42:42.603Z,1001.71
2017-12-04T04:43:42.633Z,1001.67
2017-12-04T04:44:42.663Z,1001.70
2017-12-04T04:45:42.706Z,1001.74
2017-12-04T04:46:42.726Z,1001.78
2017-12-04T04:47:42.768Z,1001.77
2017-12-04T04:48:42.786Z,1001.72
2017-12-04T04:49:42.819Z,1001.67
2017-12-04T04:50:42.848Z,1001.66
2017-12-04T04:51:42.878Z,1001.65
2017-12-04T04:52:42.910Z,1001.64
2017-12-04T04:53:42.941Z,1001.63
2017-12-04T04:54:42.974Z,1001.67
2017-12-04T04:55:43.003Z,1001.69
2017-12-04T04:56:43.034Z,1001.73
2017-12-04T04:57:43.064Z,1001.75
2017-12-04T04:58:43.094Z,1001.77
2017-12-04T04:59:43.132Z,1001.72
2017-12-04T05:00:43.155Z,1001.74
2017-12-04T05:01:43.187Z,1001.77
2017-12-04T05:02:43.218Z,1001.84
2017-12-04T05:03:43.247Z,1001.85
2017-12-04T05:04:43.281Z,1001.82
2017-12-04T05:05:43.312Z,1001.87
2017-12-04T05:06:43.341Z,1001.83
2017-12-04T05:07:43.376Z,1001.80
2017-12-04T05:08:43.407Z,1001.85
2017-12-04T05:09:43.435Z,1001.79
2017-12-04T05:10:43.466Z,1001.78
2017-12-04T05:11:43.496Z,1001.78
2017-12-04T05:12:43.538Z,1001.79
2017-12-04T05:13:43.556Z,1001.81
2017-12-04T05:14:43.717Z,1001.78
2017-12-04T05:15:43.621Z,1001.78
2017-12-04T05:16:43.661Z,1001.78
2017-12-04T05:17:43.681Z,1001.71
2017-12-04T05:18:43.710Z,1001.67
2017-12-04T05:19:43.741Z,1001.68
2017-12-04T05:20:43.778Z,1001.72
2017-12-04T05:21:43.806Z,1001.70
2017-12-04T05:22:43.836Z,1001.70
2017-12-04T05:23:43.865Z,1001.75
2017-12-04T05:24:43.896Z,1001.73
2017-12-04T05:25:44.251Z,1001.70
2017-12-04T05:26:43.956Z,1001.69
2017-12-04T05:27:43.990Z,1001.70
2017-12-04T05:28:44.016Z,1001.75
2017-12-04T05:29:44.050Z,1001.72
2017-12-04T05:30:44.079Z,1001.80
2017-12-04T05:31:44.112Z,1001.75
2017-12-04T05:32:44.143Z,1001.73
2017-12-04T05:33:44.177Z,1001.73
2017-12-04T05:34:44.299Z,1001.73
2017-12-04T05:35:44.237Z,1001.69
2017-12-04T05:36:44.321Z,1001.72
2017-12-04T05:37:44.295Z,1001.70
2017-12-04T05:38:44.327Z,1001.70
2017-12-04T05:39:44.365Z,1001.79
2017-12-04T05:40:44.387Z,1001.76
2017-12-04T05:41:44.417Z,1001.80
2017-12-04T05:42:44.456Z,1001.81
2017-12-04T05:43:44.480Z,1001.75
2017-12-04T05:44:44.511Z,1001.74
2017-12-04T05:45:44.550Z,1001.77
2017-12-04T05:46:44.583Z,1001.79
2017-12-04T05:47:44.608Z,1001.85
2017-12-04T05:48:44.634Z,1001.84
2017-12-04T05:49:44.668Z,1001.78
2017-12-04T05:50:44.698Z,1001.80
2017-12-04T05:51:44.727Z,1001.80
2017-12-04T05:52:44.758Z,1001.83
2017-12-04T05:53:44.788Z,1001.82
2017-12-04T05:54:44.820Z,1001.80
2017-12-04T05:55:44.850Z,1001.78
2017-12-04T05:56:44.889Z,1001.77
2017-12-04T05:57:44.912Z,1001.79
2017-12-04T05:58:44.942Z,1001.79
2017-12-04T05:59:44.976Z,1001.76
2017-12-04T06:00:45.012Z,1001.75
2017-12-04T06:01:45.034Z,1001.77
2017-12-04T06:02:45.064Z,1001.79
2017-12-04T06:03:45.101Z,1001.82
2017-12-04T06:04:45.131Z,1001.82
2017-12-04T06:05:45.158Z,1001.81
2017-12-04T06:06:45.191Z,1001.85
2017-12-04T06:07:45.219Z,1001.76
2017-12-04T06:08:45.249Z,1001.83
2017-12-04T06:09:45.281Z,1001.83
2017-12-04T06:10:45.312Z,1001.85
2017-12-04T06:11:45.348Z,1001.83
2017-12-04T06:12:45.375Z,1001.83
2017-12-04T06:13:45.410Z,1001.83
2017-12-04T06:14:45.434Z,1001.85
2017-12-04T06:15:45.469Z,1001.85
2017-12-04T06:16:45.511Z,1001.81
2017-12-04T06:17:45.530Z,1001.84
2017-12-04T06:18:45.559Z,1001.87
2017-12-04T06:19:45.592Z,1001.86
2017-12-04T06:20:45.620Z,1001.87
2017-12-04T06:21:45.652Z,1001.82
2017-12-04T06:22:45.683Z,1001.89
2017-12-04T06:23:45.713Z,1001.97
2017-12-04T06:24:45.751Z,1001.94
2017-12-04T06:25:45.880Z,1001.89
2017-12-04T06:26:45.804Z,1001.90
2017-12-04T06:27:45.840Z,1001.90
2017-12-04T06:28:45.876Z,1001.90
2017-12-04T06:29:45.905Z,1001.96
2017-12-04T06:30:45.931Z,1001.96
2017-12-04T06:31:45.968Z,1001.96
2017-12-04T06:32:45.997Z,1001.94
2017-12-04T06:33:46.023Z,1001.99
2017-12-04T06:34:46.100Z,1002.00
2017-12-04T06:35:46.086Z,1001.97
2017-12-04T06:36:46.117Z,1001.94
2017-12-04T06:37:46.145Z,1001.99
2017-12-04T06:38:46.197Z,1001.96
2017-12-04T06:39:46.223Z,1002.01
2017-12-04T06:40:46.240Z,1002.00
2017-12-04T06:41:46.277Z,1002.04
2017-12-04T06:42:46.300Z,1002.04
2017-12-04T06:43:46.343Z,1002.00
2017-12-04T06:44:46.361Z,1002.03
2017-12-04T06:45:46.454Z,1002.03
2017-12-04T06:46:46.423Z,1002.00
2017-12-04T06:47:46.459Z,1002.07
2017-12-04T06:48:46.484Z,1002.08
2017-12-04T06:49:46.517Z,1002.08
2017-12-04T06:50:46.546Z,1002.12
2017-12-04T06:51:46.577Z,1002.15
2017-12-04T06:52:46.607Z,1002.20
2017-12-04T06:53:46.641Z,1002.23
2017-12-04T06:54:46.673Z,1002.21
2017-12-04T06:55:46.702Z,1002.20
2017-12-04T06:56:46.732Z,1002.18
2017-12-04T06:57:46.762Z,1002.19
2017-12-04T06:58:46.795Z,1002.17
2017-12-04T06:59:46.824Z,1002.17
2017-12-04T07:00:46.862Z,1002.21
2017-12-04T07:01:46.885Z,1002.21
2017-12-04T07:02:46.917Z,1002.29
2017-12-04T07:03:46.946Z,1002.30
2017-12-04T07:04:46.978Z,1002.25
2017-12-04T07:05:47.013Z,1002.22
2017-12-04T07:06:47.042Z,1002.25
2017-12-04T07:07:47.073Z,1002.28
2017-12-04T07:08:47.103Z,1002.24
2017-12-04T07:09:47.134Z,1002.28
2017-12-04T07:10:47.165Z,1002.25
2017-12-04T07:11:47.197Z,1002.30
2017-12-04T07:12:47.226Z,1002.33
2017-12-04T07:13:47.256Z,1002.32
2017-12-04T07:14:47.289Z,1002.34
2017-12-04T07:15:47.318Z,1002.30
2017-12-04T07:16:47.349Z,1002.31
2017-12-04T07:17:47.381Z,1002.33
2017-12-04T07:18:47.413Z,1002.29
2017-12-04T07:19:47.443Z,1002.38
2017-12-04T07:20:47.474Z,1002.37
2017-12-04T07:21:47.506Z,1002.42
2017-12-04T07:22:47.535Z,1002.40
2017-12-04T07:23:47.587Z,1002.35
2017-12-04T07:24:47.594Z,1002.45
2017-12-04T07:25:47.627Z,1002.43
2017-12-04T07:26:47.657Z,1002.47
2017-12-04T07:27:47.695Z,1002.39
2017-12-04T07:28:47.718Z,1002.39
2017-12-04T07:29:47.749Z,1002.41
2017-12-04T07:30:47.779Z,1002.44
2017-12-04T07:31:47.816Z,1002.45
2017-12-04T07:32:47.842Z,1002.45
2017-12-04T07:33:47.874Z,1002.47
2017-12-04T07:34:48.015Z,1002.53
2017-12-04T07:35:47.934Z,1002.52
2017-12-04T07:36:47.968Z,1002.50
2017-12-04T07:37:47.999Z,1002.52
2017-12-04T07:38:48.027Z,1002.51
2017-12-04T07:39:48.057Z,1002.50
2017-12-04T07:40:48.094Z,1002.47
2017-12-04T07:41:48.120Z,1002.46
2017-12-04T07:42:48.152Z,1002.56
2017-12-04T07:43:48.277Z,1002.52
2017-12-04T07:44:48.216Z,1002.50
2017-12-04T07:45:48.295Z,1002.49
2017-12-04T07:46:48.275Z,1002.55
2017-12-04T07:47:48.305Z,1002.58
2017-12-04T07:48:48.338Z,1002.59
2017-12-04T07:49:48.367Z,1002.60
2017-12-04T07:50:48.397Z,1002.58
2017-12-04T07:51:48.430Z,1002.62
2017-12-04T07:52:48.461Z,1002.64
2017-12-04T07:53:48.495Z,1002.62
2017-12-04T07:54:48.531Z,1002.66
2017-12-04T07:55:48.555Z,1002.66
2017-12-04T07:56:48.586Z,1002.70
2017-12-04T07:57:48.616Z,1002.71
2017-12-04T07:58:48.647Z,1002.75
2017-12-04T07:59:48.686Z,1002.77
2017-12-04T08:00:48.709Z,1002.78
2017-12-04T08:01:48.738Z,1002.81
2017-12-04T08:02:48.770Z,1002.82
2017-12-04T08:03:48.802Z,1002.85
2017-12-04T08:04:48.836Z,1002.84
2017-12-04T08:05:48.860Z,1002.87
2017-12-04T08:06:48.895Z,1002.87
2017-12-04T08:07:48.923Z,1002.84
2017-12-04T08:08:48.956Z,1002.83
2017-12-04T08:09:48.985Z,1002.80
2017-12-04T08:10:49.017Z,1002.88
2017-12-04T08:11:49.050Z,1002.88
2017-12-04T08:12:49.081Z,1002.85
2017-12-04T08:13:49.111Z,1002.84
2017-12-04T08:14:49.142Z,1002.85
2017-12-04T08:15:49.172Z,1002.83
2017-12-04T08:16:49.202Z,1002.82
2017-12-04T08:17:49.236Z,1002.78
2017-12-04T08:18:49.268Z,1002.78
2017-12-04T08:19:49.297Z,1002.84
2017-12-04T08:20:49.328Z,1002.83
2017-12-04T08:21:49.358Z,1002.81
2017-12-04T08:22:49.392Z,1002.79
2017-12-04T08:23:49.873Z,1002.78
2017-12-04T08:24:49.458Z,1002.78
2017-12-04T08:25:49.484Z,1002.80
2017-12-04T08:26:49.517Z,1002.78
2017-12-04T08:27:49.547Z,1002.75
2017-12-04T08:28:49.578Z,1002.78
2017-12-04T08:29:49.610Z,1002.79
2017-12-04T08:30:49.637Z,1002.79
2017-12-04T08:31:49.671Z,1002.80
2017-12-04T08:32:49.774Z,1002.78
2017-12-04T08:33:49.735Z,1002.80
2017-12-04T08:34:49.776Z,1002.83
2017-12-04T08:35:49.811Z,1002.87
2017-12-04T08:36:49.829Z,1002.86
2017-12-04T08:37:49.858Z,1002.84
2017-12-04T08:38:49.888Z,1002.81
2017-12-04T08:39:49.920Z,1002.88
2017-12-04T08:40:49.953Z,1002.90
2017-12-04T08:41:49.982Z,1002.88
2017-12-04T08:42:50.013Z,1002.88
2017-12-04T08:43:50.116Z,1002.87
2017-12-04T08:44:50.078Z,1002.95
2017-12-04T08:45:50.108Z,1002.99
2017-12-04T08:46:50.142Z,1003.02
2017-12-04T08:47:50.170Z,1002.99
2017-12-04T08:48:50.200Z,1003.01
2017-12-04T08:49:50.233Z,1003.03
2017-12-04T08:50:50.264Z,1002.97
2017-12-04T08:51:50.299Z,1002.96
2017-12-04T08:52:50.401Z,1003.00
2017-12-04T08:53:50.368Z,1003.01
2017-12-04T08:54:50.393Z,1003.00
2017-12-04T08:55:50.424Z,1003.00
2017-12-04T08:56:50.454Z,1002.95
2017-12-04T08:57:50.484Z,1003.00
2017-12-04T08:58:50.521Z,1003.09
2017-12-04T08:59:50.552Z,1003.10
2017-12-04T09:00:50.582Z,1003.09
2017-12-04T09:01:50.612Z,1003.13
2017-12-04T09:02:50.646Z,1003.13
2017-12-04T09:03:50.674Z,1003.12
2017-12-04T09:04:50.711Z,1003.10
2017-12-04T09:05:50.739Z,1003.15
2017-12-04T09:06:50.771Z,1003.08
2017-12-04T09:07:50.802Z,1003.12
2017-12-04T09:08:50.832Z,1003.14
2017-12-04T09:09:50.865Z,1003.23
2017-12-04T09:10:50.896Z,1003.19
2017-12-04T09:11:50.932Z,1003.17
2017-12-04T09:12:50.960Z,1003.16
2017-12-04T09:13:50.992Z,1003.27
2017-12-04T09:14:51.023Z,1003.23
2017-12-04T09:15:51.055Z,1003.22
2017-12-04T09:16:51.086Z,1003.23
2017-12-04T09:17:51.122Z,1003.25
2017-12-04T09:18:51.152Z,1003.23
2017-12-04T09:19:51.187Z,1003.19
2017-12-04T09:20:51.214Z,1003.24
2017-12-04T09:21:51.246Z,1003.23
2017-12-04T09:22:51.276Z,1003.29
2017-12-04T09:23:51.311Z,1003.25
2017-12-04T09:24:51.340Z,1003.24
2017-12-04T09:25:51.381Z,1003.28
2017-12-04T09:26:51.404Z,1003.26
2017-12-04T09:27:51.437Z,1003.24
2017-12-04T09:28:51.467Z,1003.27
2017-12-04T09:29:51.499Z,1003.28
2017-12-04T09:30:51.540Z,1003.31
2017-12-04T09:31:51.582Z,1003.31
2017-12-04T09:32:51.594Z,1003.35
2017-12-04T09:33:51.623Z,1003.32
2017-12-04T09:34:51.657Z,1003.37
2017-12-04T09:35:51.704Z,1003.38
2017-12-04T09:36:51.725Z,1003.36
2017-12-04T09:37:51.758Z,1003.38
2017-12-04T09:38:51.787Z,1003.39
2017-12-04T09:39:51.817Z,1003.39
2017-12-04T09:40:51.848Z,1003.36
2017-12-04T09:41:52.284Z,1003.36
2017-12-04T09:42:51.914Z,1003.39
2017-12-04T09:43:51.945Z,1003.39
2017-12-04T09:44:51.992Z,1003.38
2017-12-04T09:45:52.006Z,1003.38
2017-12-04T09:46:52.041Z,1003.42
2017-12-04T09:47:52.075Z,1003.48
2017-12-04T09:48:52.105Z,1003.47
2017-12-04T09:49:52.135Z,1003.48
2017-12-04T09:50:52.501Z,1003.53
2017-12-04T09:51:52.207Z,1003.52
2017-12-04T09:52:52.297Z,1003.50
2017-12-04T09:53:52.281Z,1003.58
2017-12-04T09:54:52.293Z,1003.61
2017-12-04T09:55:52.326Z,1003.63
2017-12-04T09:56:52.355Z,1003.59
2017-12-04T09:57:52.419Z,1003.62
2017-12-04T09:58:52.423Z,1003.63
2017-12-04T09:59:52.453Z,1003.58
2017-12-04T10:00:52.487Z,1003.61
2017-12-04T10:01:52.551Z,1003.64
2017-12-04T10:02:52.548Z,1003.61
2017-12-04T10:03:52.583Z,1003.61
2017-12-04T10:04:52.614Z,1003.63
2017-12-04T10:05:52.644Z,1003.60
2017-12-04T10:06:52.677Z,1003.65
2017-12-04T10:07:52.706Z,1003.66
2017-12-04T10:08:52.738Z,1003.63
2017-12-04T10:09:52.772Z,1003.66
2017-12-04T10:10:52.804Z,1003.63
2017-12-04T10:11:52.836Z,1003.62
2017-12-04T10:12:52.867Z,1003.65
2017-12-04T10:13:52.899Z,1003.66
2017-12-04T10:14:52.935Z,1003.62
2017-12-04T10:15:52.970Z,1003.61
2017-12-04T10:16:52.994Z,1003.66
2017-12-04T10:17:53.029Z,1003.65
2017-12-04T10:18:53.060Z,1003.62
2017-12-04T10:19:53.094Z,1003.66
2017-12-04T10:20:53.126Z,1003.65
2017-12-04T10:21:53.154Z,1003.67
2017-12-04T10:22:53.198Z,1003.65
2017-12-04T10:23:53.221Z,1003.62
2017-12-04T10:24:53.263Z,1003.60
2017-12-04T10:25:53.287Z,1003.69
2017-12-04T10:26:53.316Z,1003.61
2017-12-04T10:27:53.357Z,1003.63
2017-12-04T10:28:53.381Z,1003.65
2017-12-04T10:29:53.413Z,1003.64
2017-12-04T10:30:53.446Z,1003.61
2017-12-04T10:31:53.479Z,1003.67
2017-12-04T10:32:53.509Z,1003.64
2017-12-04T10:33:53.539Z,1003.58
2017-12-04T10:34:53.574Z,1003.55
2017-12-04T10:35:53.604Z,1003.62
2017-12-04T10:36:53.648Z,1003.62
2017-12-04T10:37:53.670Z,1003.61
2017-12-04T10:38:53.701Z,1003.62
2017-12-04T10:39:53.800Z,1003.58
2017-12-04T10:40:53.767Z,1003.58
2017-12-04T10:41:53.849Z,1003.54
2017-12-04T10:42:53.831Z,1003.54
2017-12-04T10:43:53.864Z,1003.58
2017-12-04T10:44:53.903Z,1003.56
2017-12-04T10:45:53.926Z,1003.53
2017-12-04T10:46:53.962Z,1003.54
2017-12-04T10:47:54.000Z,1003.56
2017-12-04T10:48:54.052Z,1003.57
2017-12-04T10:49:54.060Z,1003.56
2017-12-04T10:50:54.148Z,1003.58
2017-12-04T10:51:54.128Z,1003.56
2017-12-04T10:52:54.157Z,1003.57
2017-12-04T10:53:54.188Z,1003.54
2017-12-04T10:54:54.220Z,1003.54
2017-12-04T10:55:54.250Z,1003.53
2017-12-04T10:56:54.287Z,1003.62
2017-12-04T10:57:54.320Z,1003.61
2017-12-04T10:58:54.348Z,1003.51
2017-12-04T10:59:54.440Z,1003.54
2017-12-04T11:00:54.409Z,1003.53
2017-12-04T11:01:54.458Z,1003.47
2017-12-04T11:02:54.477Z,1003.51
2017-12-04T11:03:54.510Z,1003.53
2017-12-04T11:04:54.542Z,1003.55
2017-12-04T11:05:54.572Z,1003.55
2017-12-04T11:06:54.607Z,1003.52
2017-12-04T11:07:54.638Z,1003.48
2017-12-04T11:08:54.668Z,1003.44
2017-12-04T11:09:54.700Z,1003.45
2017-12-04T11:10:54.742Z,1003.48
2017-12-04T11:11:54.763Z,1003.50
2017-12-04T11:12:54.802Z,1003.50
2017-12-04T11:13:54.828Z,1003.53
2017-12-04T11:14:54.868Z,1003.51
2017-12-04T11:15:54.893Z,1003.55
2017-12-04T11:16:54.924Z,1003.63
2017-12-04T11:17:54.958Z,1003.59
2017-12-04T11:18:54.989Z,1003.57
2017-12-04T11:19:55.022Z,1003.60
2017-12-04T11:20:55.051Z,1003.58
2017-12-04T11:21:55.084Z,1003.54
2017-12-04T11:22:55.118Z,1003.52
2017-12-04T11:23:55.151Z,1003.52
2017-12-04T11:24:55.181Z,1003.52
2017-12-04T11:25:55.211Z,1003.46
2017-12-04T11:26:55.248Z,1003.52
2017-12-04T11:27:55.278Z,1003.50
2017-12-04T11:28:55.309Z,1003.53
2017-12-04T11:29:55.341Z,1003.49
2017-12-04T11:30:55.375Z,1003.50
2017-12-04T11:31:55.404Z,1003.55
2017-12-04T11:32:55.440Z,1003.59
2017-12-04T11:33:55.470Z,1003.57
2017-12-04T11:34:55.501Z,1003.62
2017-12-04T11:35:55.534Z,1003.54
2017-12-04T11:36:55.569Z,1003.54
2017-12-04T11:37:55.932Z,1003.62
2017-12-04T11:38:55.630Z,1003.61
2017-12-04T11:39:55.663Z,1003.62
2017-12-04T11:40:55.695Z,1003.61
2017-12-04T11:41:55.728Z,1003.52
2017-12-04T11:42:55.759Z,1003.57
2017-12-04T11:43:55.828Z,1003.64
2017-12-04T11:44:55.823Z,1003.54
2017-12-04T11:45:55.857Z,1003.58
2017-12-04T11:46:55.891Z,1003.65
2017-12-04T11:47:55.921Z,1003.68
2017-12-04T11:48:55.962Z,1003.71
2017-12-04T11:49:55.984Z,1003.70
2017-12-04T11:50:56.021Z,1003.68
2017-12-04T11:51:56.050Z,1003.68
2017-12-04T11:52:56.080Z,1003.79
2017-12-04T11:53:56.111Z,1003.77
2017-12-04T11:54:56.144Z,1003.78
2017-12-04T11:55:56.175Z,1003.78
2017-12-04T11:56:56.211Z,1003.82
2017-12-04T11:57:56.342Z,1003.84
2017-12-04T11:58:56.272Z,1003.80
2017-12-04T11:59:56.318Z,1003.81
2017-12-04T12:00:56.336Z,1003.84
2017-12-04T12:01:56.371Z,1003.81
2017-12-04T12:02:56.413Z,1003.84
2017-12-04T12:03:56.433Z,1003.81
2017-12-04T12:04:56.470Z,1003.84
2017-12-04T12:05:56.501Z,1003.82